Campanya meteocatpedra

Dades EMA el Canós

?
?
Resum diari 20:30 TU
Dades diàries de l'estació meteorològica
Temperatura mitjana 25.7 °C
Temperatura màxima 32.2 °C 15:29 TU
Temperatura mínima 19.4 °C 1:11 TU
Humitat relativa mitjana 58%
Precipitació acumulada 0.0 mm
Ratxa màxima del vent (2 m) 21.2 km/h - 260º 12:41 TU
Irradiació solar global 23.0 MJ/m2

El tram horari està expressat en Temps Universal (TU). Cal sumar una hora en horari d'hivern i dues en horari d'estiu per passar a l'hora oficial.

el Canós

Metadades estació meteorol´gica
Municipi Els Plans de Sió
Comarca Segarra
Altitud 429 m
Data alta 22.10.1988
Estat actual Operativa
Dades de període
Període
TU
TM
°C
TX
°C
TN
°C
HRM
%
PPT
mm
VVM (2 m)
km/h
DVM (2 m)
graus
VVX (2 m)
km/h
RS
W/m2
00:00 - 00:30 20.5 21.0 20.2 63 0.0 0.7 78 4.0 0
00:30 - 01:00 20.0 20.4 19.7 65 0.0 0.7 82 3.6 0
01:00 - 01:30 19.5 19.7 19.4 67 0.0 0.7 98 3.6 0
01:30 - 02:00 19.7 19.9 19.6 66 0.0 0.4 105 3.2 0
02:00 - 02:30 19.9 20.3 19.6 64 0.0 1.1 103 3.6 0
02:30 - 03:00 20.1 20.4 19.9 64 0.0 1.8 94 4.7 0
03:00 - 03:30 19.8 20.1 19.7 72 0.0 0.7 57 8.3 0
03:30 - 04:00 20.0 20.0 19.8 78 0.0 1.8 58 9.4 0
04:00 - 04:30 19.9 20.0 19.8 82 0.0 2.5 60 11.9 0
04:30 - 05:00 19.8 20.0 19.7 85 0.0 1.4 62 9.4 0
05:00 - 05:30 19.8 19.9 19.8 86 0.0 1.1 88 4.3 11
05:30 - 06:00 20.5 21.2 19.9 85 0.0 0.4 71 3.2 65
06:00 - 06:30 22.0 22.7 21.2 78 0.0 0.7 53 6.1 117
06:30 - 07:00 23.3 23.8 22.7 69 0.0 1.4 19 5.4 195
07:00 - 07:30 23.8 24.1 23.7 63 0.0 1.4 211 4.7 218
07:30 - 08:00 24.6 25.6 23.8 59 0.0 1.1 158 4.7 341
08:00 - 08:30 25.5 26.0 25.0 54 0.0 2.9 207 8.3 401
08:30 - 09:00 25.9 26.1 25.5 55 0.0 5.4 234 14.0 460
09:00 - 09:30 26.2 26.7 25.8 54 0.0 6.8 284 15.5 509
09:30 - 10:00 26.5 27.0 26.0 52 0.0 5.8 307 12.6 611
10:00 - 10:30 27.1 27.4 26.8 52 0.0 5.4 285 14.4 745
10:30 - 11:00 27.7 28.0 27.3 50 0.0 6.1 271 16.9 725
11:00 - 11:30 28.3 28.8 27.7 49 0.0 6.8 307 15.1 806
11:30 - 12:00 29.2 29.7 28.6 48 0.0 5.8 320 18.0 853
12:00 - 12:30 29.4 29.9 29.0 47 0.0 7.9 280 16.6 853
12:30 - 13:00 30.0 30.7 29.3 47 0.0 8.6 304 21.2 844
13:00 - 13:30 30.4 31.0 30.1 45 0.0 9.0 287 21.2 817
13:30 - 14:00 30.8 31.4 30.4 45 0.0 9.4 283 20.5 757
14:00 - 14:30 31.0 31.6 30.5 44 0.0 7.6 275 15.8 692
14:30 - 15:00 31.3 31.7 31.0 44 0.0 7.9 280 19.4 600
15:00 - 15:30 31.4 32.2 30.9 44 0.0 7.9 289 16.6 581
15:30 - 16:00 31.5 32.1 31.0 45 0.0 7.2 277 16.6 492
16:00 - 16:30 31.6 31.8 31.2 46 0.0 8.6 290 16.2 418
16:30 - 17:00 31.2 31.6 31.0 46 0.0 6.8 294 14.8 320
17:00 - 17:30 30.8 31.4 30.4 47 0.0 7.6 289 14.8 219
17:30 - 18:00 30.0 30.5 29.7 47 0.0 6.8 298 15.1 126
18:00 - 18:30 29.3 29.7 28.7 48 0.0 6.1 260 11.5 48
18:30 - 19:00 28.2 28.7 27.4 51 0.0 4.7 215 8.3 5
19:00 - 19:30 27.0 27.5 26.2 54 0.0 1.8 154 7.2 0
19:30 - 20:00 25.9 26.2 25.6 57 0.0 1.8 119 7.2 0
20:00 - 20:30 25.1 25.5 24.7 60 0.0 1.8 107 6.8 0
20:30 - 21:00 24.7 24.9 24.4 61 0.0 2.9 131 9.7 0
21:00 - 21:30 24.1 24.3 23.8 62 0.0 2.9 120 12.6 0

Les dades en taronja només han passat un control de qualitat automàtic. Resta pendent la seva validació definitiva.